createdAt,value
2019-02-22T00:00:56.427Z,90.19
2019-02-22T00:03:31.427Z,90.11
2019-02-22T00:06:06.379Z,90.45
2019-02-22T00:08:41.264Z,90.46
2019-02-22T00:11:16.075Z,89.88
2019-02-22T00:13:51.011Z,90.20
2019-02-22T00:16:26.007Z,90.13
2019-02-22T00:19:01.769Z,90.45
2019-02-22T00:21:36.585Z,90.91
2019-02-22T00:24:11.540Z,90.84
2019-02-22T00:26:46.422Z,90.46
2019-02-22T00:29:21.306Z,91.09
2019-02-22T00:31:56.253Z,90.88
2019-02-22T00:34:31.266Z,90.34
2019-02-22T00:37:06.276Z,90.10
2019-02-22T00:39:41.354Z,90.13
2019-02-22T00:42:16.307Z,89.92
2019-02-22T00:44:52.033Z,90.10
2019-02-22T00:47:27.021Z,89.84
2019-02-22T00:50:01.933Z,89.62
2019-02-22T00:52:38.146Z,89.41
2019-02-22T00:55:15.926Z,89.70
2019-02-22T00:57:50.829Z,90.07
2019-02-22T01:00:28.461Z,90.34
2019-02-22T01:03:06.364Z,90.09
2019-02-22T01:05:41.351Z,90.08
2019-02-22T01:08:16.243Z,90.78
2019-02-22T01:10:51.139Z,90.62
2019-02-22T01:13:28.104Z,90.06
2019-02-22T01:16:03.099Z,89.73
2019-02-22T01:18:39.100Z,89.95
2019-02-22T01:21:13.974Z,89.97
2019-02-22T01:23:49.061Z,90.07
2019-02-22T01:26:24.074Z,90.00
2019-02-22T01:28:58.931Z,90.12
2019-02-22T01:31:33.880Z,89.57
2019-02-22T01:34:09.019Z,89.56
2019-02-22T01:36:43.968Z,89.52
2019-02-22T01:39:19.043Z,89.61
2019-02-22T01:41:54.157Z,89.42
2019-02-22T01:44:29.084Z,89.63
2019-02-22T01:47:03.979Z,90.39
2019-02-22T01:49:38.810Z,90.46
2019-02-22T01:52:13.707Z,89.95
2019-02-22T01:54:48.627Z,89.79
2019-02-22T01:57:26.795Z,89.46
2019-02-22T02:00:01.853Z,89.17
2019-02-22T02:02:38.986Z,88.83
2019-02-22T02:05:13.987Z,88.53
2019-02-22T02:07:48.787Z,88.55
2019-02-22T02:10:23.840Z,88.36
2019-02-22T02:12:58.720Z,88.72
2019-02-22T02:15:33.727Z,88.28
2019-02-22T02:18:08.616Z,88.27
2019-02-22T02:20:43.643Z,88.20
2019-02-22T02:23:18.555Z,88.03
2019-02-22T02:25:53.441Z,88.15
2019-02-22T02:28:28.426Z,88.18
2019-02-22T02:31:03.414Z,88.03
2019-02-22T02:33:38.321Z,88.14
2019-02-22T02:36:13.285Z,87.90
2019-02-22T02:38:48.211Z,88.00
2019-02-22T02:41:23.119Z,88.07
2019-02-22T02:43:58.132Z,88.62
2019-02-22T02:46:33.869Z,88.38
2019-02-22T02:49:08.736Z,88.13
2019-02-22T02:51:43.633Z,88.67
2019-02-22T02:54:19.591Z,88.16
2019-02-22T02:56:54.535Z,88.20
2019-02-22T02:59:30.524Z,87.97
2019-02-22T03:02:09.169Z,88.10
2019-02-22T03:04:44.192Z,88.09
2019-02-22T03:07:36.846Z,88.15
2019-02-22T03:10:12.446Z,87.70
2019-02-22T03:12:47.788Z,88.33
2019-02-22T03:15:23.080Z,88.13
2019-02-22T03:17:58.087Z,88.12
2019-02-22T03:20:33.252Z,88.03
2019-02-22T03:23:08.595Z,88.61
2019-02-22T03:25:43.450Z,88.31
2019-02-22T03:28:18.439Z,88.31
2019-02-22T03:30:53.362Z,88.65
2019-02-22T03:33:30.024Z,88.49
2019-02-22T03:36:04.906Z,88.80
2019-02-22T03:38:39.987Z,88.51
2019-02-22T03:41:14.875Z,88.43
2019-02-22T03:43:49.892Z,88.44
2019-02-22T03:46:24.682Z,89.08
2019-02-22T03:48:59.467Z,88.88
2019-02-22T03:51:34.495Z,88.58
2019-02-22T03:54:09.509Z,88.66
2019-02-22T03:56:44.469Z,88.29
2019-02-22T03:59:19.665Z,88.34
2019-02-22T04:01:54.560Z,88.09
2019-02-22T04:04:29.525Z,88.31
2019-02-22T04:07:04.621Z,88.17
2019-02-22T04:09:40.424Z,87.41
2019-02-22T04:12:15.233Z,88.08
2019-02-22T04:14:52.549Z,88.55
2019-02-22T04:17:29.863Z,88.45
2019-02-22T04:20:07.418Z,88.37
2019-02-22T04:22:44.736Z,88.45
2019-02-22T04:25:22.084Z,88.67
2019-02-22T04:27:59.416Z,88.55
2019-02-22T04:30:37.910Z,88.57
2019-02-22T04:33:13.360Z,89.25
2019-02-22T04:35:48.554Z,89.79
2019-02-22T04:38:23.445Z,89.94
2019-02-22T04:40:58.343Z,89.98
2019-02-22T04:43:33.331Z,89.19
2019-02-22T04:46:11.080Z,89.45
2019-02-22T04:48:46.003Z,89.01
2019-02-22T04:52:05.520Z,89.14
2019-02-22T04:54:48.091Z,88.88
2019-02-22T04:57:22.997Z,89.09
2019-02-22T04:59:57.918Z,88.85
2019-02-22T05:02:33.018Z,88.66
2019-02-22T05:05:08.338Z,88.78
2019-02-22T05:07:43.446Z,88.61
2019-02-22T05:10:18.422Z,88.53
2019-02-22T05:12:54.268Z,88.31
2019-02-22T05:15:29.196Z,88.04
2019-02-22T05:18:04.112Z,87.99
2019-02-22T05:20:38.988Z,88.28
2019-02-22T05:23:13.927Z,88.56
2019-02-22T05:25:51.386Z,88.67
2019-02-22T05:28:27.152Z,88.38
2019-02-22T05:31:02.543Z,88.37
2019-02-22T05:33:37.512Z,88.35
2019-02-22T05:36:12.580Z,88.69
2019-02-22T05:38:47.499Z,88.63
2019-02-22T05:41:22.666Z,88.53
2019-02-22T05:43:57.593Z,88.12
2019-02-22T05:46:32.714Z,88.13
2019-02-22T05:49:10.482Z,88.43
2019-02-22T05:51:46.272Z,88.49
2019-02-22T05:54:21.265Z,89.09
2019-02-22T05:56:56.146Z,88.58
2019-02-22T05:59:31.060Z,88.46
2019-02-22T06:02:05.959Z,88.43
2019-02-22T06:04:40.967Z,87.85
2019-02-22T06:07:15.881Z,88.27
2019-02-22T06:09:50.880Z,88.02
2019-02-22T06:12:34.266Z,87.74
2019-02-22T06:15:05.894Z,87.84
2019-02-22T06:17:40.766Z,87.94
2019-02-22T06:20:15.706Z,87.76
2019-02-22T06:22:51.458Z,87.46
2019-02-22T06:25:26.409Z,87.11
2019-02-22T06:28:02.164Z,86.43
2019-02-22T06:30:37.297Z,86.58
2019-02-22T06:33:14.690Z,86.34
2019-02-22T06:35:52.114Z,86.61
2019-02-22T06:38:29.523Z,86.70
2019-02-22T06:41:04.782Z,86.64
2019-02-22T06:43:40.791Z,86.56
2019-02-22T06:46:15.676Z,86.17
2019-02-22T06:48:50.564Z,85.81
2019-02-22T06:51:25.483Z,85.64
2019-02-22T06:54:00.470Z,85.67
2019-02-22T06:56:38.358Z,85.59
2019-02-22T06:59:13.428Z,85.50
2019-02-22T07:01:49.991Z,84.76
2019-02-22T07:04:27.334Z,85.02
2019-02-22T07:07:02.411Z,85.53
2019-02-22T07:09:37.300Z,85.55
2019-02-22T07:12:19.304Z,86.23
2019-02-22T07:14:54.332Z,86.54
2019-02-22T07:17:29.321Z,85.93
2019-02-22T07:20:04.538Z,86.63
2019-02-22T07:22:40.715Z,86.88
2019-02-22T07:25:15.673Z,86.57
2019-02-22T07:27:50.736Z,86.06
2019-02-22T07:30:25.801Z,86.34
2019-02-22T07:33:00.754Z,86.12
2019-02-22T07:35:35.812Z,86.36
2019-02-22T07:38:10.969Z,85.89
2019-02-22T07:40:46.089Z,85.60
2019-02-22T07:43:21.105Z,85.42
2019-02-22T07:45:56.165Z,86.03
2019-02-22T07:48:31.340Z,85.55
2019-02-22T07:51:06.222Z,86.08
2019-02-22T07:53:42.130Z,85.67
2019-02-22T07:56:19.208Z,85.37
2019-02-22T07:58:54.482Z,85.20
2019-02-22T08:01:29.513Z,85.34
2019-02-22T08:04:04.414Z,84.20
2019-02-22T08:06:42.341Z,84.06
2019-02-22T08:09:18.883Z,84.03
2019-02-22T08:11:53.924Z,84.09
2019-02-22T08:14:28.967Z,84.18
2019-02-22T08:17:03.954Z,83.95
2019-02-22T08:19:39.318Z,84.70
2019-02-22T08:22:15.268Z,84.52
2019-02-22T08:24:50.286Z,84.31
2019-02-22T08:27:26.446Z,84.12
2019-02-22T08:30:02.232Z,83.22
2019-02-22T08:32:37.236Z,83.74
2019-02-22T08:35:12.415Z,83.36
2019-02-22T08:37:47.541Z,83.13
2019-02-22T08:40:22.636Z,83.16
2019-02-22T08:42:57.561Z,82.79
2019-02-22T08:45:32.957Z,82.49
2019-02-22T08:48:07.912Z,82.69
2019-02-22T08:50:46.130Z,82.45
2019-02-22T08:53:21.360Z,82.58
2019-02-22T08:55:56.362Z,82.25
2019-02-22T08:58:34.722Z,82.36
2019-02-22T09:01:09.924Z,82.51
2019-02-22T09:03:50.724Z,82.07
2019-02-22T09:06:21.756Z,81.96
2019-02-22T09:08:58.520Z,81.58
2019-02-22T09:11:34.032Z,82.02
2019-02-22T09:14:09.206Z,81.74
2019-02-22T09:16:44.318Z,81.79
2019-02-22T09:19:19.251Z,82.17
2019-02-22T09:21:54.140Z,82.36
2019-02-22T09:24:29.048Z,82.38
2019-02-22T09:27:04.010Z,81.99
2019-02-22T09:29:39.286Z,81.51
2019-02-22T09:32:14.497Z,81.27
2019-02-22T09:34:49.443Z,81.55
2019-02-22T09:37:24.397Z,81.00
2019-02-22T09:39:59.442Z,81.15
2019-02-22T09:42:36.963Z,80.95
2019-02-22T09:45:13.180Z,81.23
2019-02-22T09:47:48.200Z,81.50
2019-02-22T09:50:23.352Z,80.76
2019-02-22T09:52:58.544Z,80.65
2019-02-22T09:55:34.553Z,80.91
2019-02-22T09:58:09.846Z,80.55
2019-02-22T10:00:44.813Z,80.50
2019-02-22T10:03:19.974Z,80.44
2019-02-22T10:05:55.076Z,80.75
2019-02-22T10:08:30.318Z,80.94
2019-02-22T10:11:05.247Z,80.67
2019-02-22T10:13:41.307Z,80.36
2019-02-22T10:16:17.220Z,80.82
2019-02-22T10:18:52.303Z,80.23
2019-02-22T10:21:28.351Z,79.85
2019-02-22T10:24:04.477Z,79.45
2019-02-22T10:26:39.605Z,79.77
2019-02-22T10:29:14.828Z,80.31
2019-02-22T10:31:50.563Z,80.03
2019-02-22T10:34:25.576Z,80.75
2019-02-22T10:37:00.758Z,79.91
2019-02-22T10:39:35.995Z,79.49
2019-02-22T10:42:11.026Z,78.63
2019-02-22T10:44:46.209Z,79.29
2019-02-22T10:47:21.469Z,78.14
2019-02-22T10:49:57.562Z,78.23
2019-02-22T10:52:32.868Z,78.06
2019-02-22T10:55:09.627Z,77.79
2019-02-22T10:57:44.682Z,78.10
2019-02-22T11:00:22.369Z,78.67
2019-02-22T11:02:57.471Z,79.11
2019-02-22T11:05:32.761Z,79.44
2019-02-22T11:08:07.963Z,78.67
2019-02-22T11:10:43.105Z,78.13
2019-02-22T11:13:21.236Z,78.09
2019-02-22T11:15:56.304Z,77.96
2019-02-22T11:18:31.677Z,78.19
2019-02-22T11:21:06.814Z,78.31
2019-02-22T11:23:41.921Z,79.38
2019-02-22T11:26:17.856Z,79.34
2019-02-22T11:28:52.787Z,79.02
2019-02-22T11:31:27.809Z,78.34
2019-02-22T11:34:02.913Z,78.48
2019-02-22T11:36:37.840Z,79.03
2019-02-22T11:39:12.963Z,79.30
2019-02-22T11:41:48.005Z,78.85
2019-02-22T11:44:25.358Z,79.13
2019-02-22T11:47:00.459Z,78.27
2019-02-22T11:49:36.844Z,78.85
2019-02-22T11:52:11.895Z,78.96
2019-02-22T11:54:50.035Z,79.11
2019-02-22T11:57:25.446Z,79.11
2019-02-22T12:00:00.402Z,78.97
2019-02-22T12:02:36.799Z,79.72
2019-02-22T12:05:11.881Z,79.57
2019-02-22T12:07:48.242Z,79.69
2019-02-22T12:10:23.267Z,79.66
2019-02-22T12:12:58.495Z,79.29
2019-02-22T12:15:33.963Z,78.37
2019-02-22T12:18:09.041Z,78.78
2019-02-22T12:20:44.159Z,78.08
2019-02-22T12:23:19.257Z,77.21
2019-02-22T12:25:54.306Z,77.41
2019-02-22T12:28:29.441Z,77.29
2019-02-22T12:31:05.045Z,78.03
2019-02-22T12:33:40.057Z,78.20
2019-02-22T12:36:15.135Z,77.35
2019-02-22T12:38:50.168Z,77.71
2019-02-22T12:41:25.809Z,77.91
2019-02-22T12:44:00.813Z,77.47
2019-02-22T12:46:35.834Z,76.58
2019-02-22T12:49:10.996Z,76.50
2019-02-22T12:51:48.515Z,76.55
2019-02-22T12:54:25.177Z,76.27
2019-02-22T12:57:03.918Z,76.48
2019-02-22T12:59:42.394Z,76.15
2019-02-22T13:02:20.915Z,75.53
2019-02-22T13:04:56.801Z,74.83
2019-02-22T13:07:32.087Z,74.25
2019-02-22T13:10:08.995Z,74.69
2019-02-22T13:12:44.037Z,74.94
2019-02-22T13:15:19.089Z,74.45
2019-02-22T13:17:54.011Z,74.00
2019-02-22T13:20:28.972Z,74.89
2019-02-22T13:23:05.789Z,75.32
2019-02-22T13:25:40.731Z,74.36
2019-02-22T13:28:15.624Z,74.08
2019-02-22T13:30:50.588Z,74.08
2019-02-22T13:33:26.691Z,73.38
2019-02-22T13:36:02.104Z,73.63
2019-02-22T13:38:37.029Z,73.51
2019-02-22T13:41:13.014Z,74.08
2019-02-22T13:43:48.111Z,73.54
2019-02-22T13:46:23.586Z,73.57
2019-02-22T13:48:58.549Z,73.18
2019-02-22T13:51:34.167Z,73.65
2019-02-22T13:54:09.334Z,73.09
2019-02-22T13:56:46.553Z,72.97
2019-02-22T13:59:21.644Z,72.81
2019-02-22T14:01:56.611Z,72.66
2019-02-22T14:04:31.605Z,71.77
2019-02-22T14:07:06.573Z,71.75
2019-02-22T14:09:41.911Z,71.94
2019-02-22T14:12:16.861Z,71.28
2019-02-22T14:14:51.882Z,72.09
2019-02-22T14:17:26.894Z,71.92
2019-02-22T14:20:01.913Z,71.87
2019-02-22T14:22:37.190Z,72.42
2019-02-22T14:25:12.199Z,72.83
2019-02-22T14:27:47.207Z,72.09
2019-02-22T14:30:22.187Z,72.20
2019-02-22T14:32:57.105Z,72.54
2019-02-22T14:35:34.851Z,73.21
2019-02-22T14:38:09.927Z,73.43
2019-02-22T14:40:44.852Z,73.93
2019-02-22T14:43:19.876Z,73.77
2019-02-22T14:45:54.757Z,74.43
2019-02-22T14:48:29.771Z,74.60
2019-02-22T14:51:04.691Z,75.33
2019-02-22T14:53:39.647Z,74.90
2019-02-22T14:56:14.581Z,74.65
2019-02-22T14:58:49.529Z,74.48
2019-02-22T15:01:24.627Z,74.60
2019-02-22T15:03:59.529Z,74.45
2019-02-22T15:06:35.357Z,74.65
2019-02-22T15:09:10.341Z,75.37
2019-02-22T15:11:47.539Z,74.96
2019-02-22T15:14:44.336Z,75.02
2019-02-22T15:17:28.369Z,74.18
2019-02-22T15:20:03.453Z,74.49
2019-02-22T15:22:39.022Z,74.61
2019-02-22T15:25:14.197Z,74.72
2019-02-22T15:27:49.100Z,74.81
2019-02-22T15:30:24.045Z,74.67
2019-02-22T15:32:58.991Z,75.19
2019-02-22T15:35:33.947Z,75.46
2019-02-22T15:38:10.642Z,74.78
2019-02-22T15:40:45.624Z,75.31
2019-02-22T15:43:26.989Z,75.53
2019-02-22T15:46:11.792Z,75.88
2019-02-22T15:48:39.281Z,75.98
2019-02-22T15:51:14.314Z,75.94
2019-02-22T15:53:49.283Z,75.94
2019-02-22T15:56:24.245Z,76.31
2019-02-22T15:58:59.231Z,76.32
2019-02-22T16:01:39.675Z,76.33
2019-02-22T16:04:20.631Z,76.41
2019-02-22T16:06:55.799Z,75.94
2019-02-22T16:09:30.833Z,75.95
2019-02-22T16:12:06.279Z,75.84
2019-02-22T16:14:44.867Z,76.03
2019-02-22T16:17:19.849Z,76.50
2019-02-22T16:19:54.904Z,76.28
2019-02-22T16:22:29.935Z,76.72
2019-02-22T16:25:05.153Z,76.52
2019-02-22T16:27:40.544Z,76.39
2019-02-22T16:30:18.075Z,76.93
2019-02-22T16:32:54.144Z,76.76
2019-02-22T16:35:52.569Z,77.33
2019-02-22T16:38:27.445Z,77.37
2019-02-22T16:41:02.609Z,76.89
2019-02-22T16:43:37.538Z,76.65
2019-02-22T16:46:12.640Z,76.48
2019-02-22T16:48:47.575Z,76.87
2019-02-22T16:51:22.741Z,77.37
2019-02-22T16:53:57.737Z,77.42
2019-02-22T16:56:33.184Z,77.44
2019-02-22T16:59:09.444Z,77.23
2019-02-22T17:01:44.383Z,77.24
2019-02-22T17:04:19.424Z,76.54
2019-02-22T17:06:54.294Z,77.08
2019-02-22T17:09:29.232Z,77.17
2019-02-22T17:12:06.752Z,77.44
2019-02-22T17:14:48.587Z,77.48
2019-02-22T17:17:27.274Z,76.83
2019-02-22T17:20:02.244Z,77.17
2019-02-22T17:22:58.834Z,77.09
2019-02-22T17:25:33.979Z,77.14
2019-02-22T17:28:08.877Z,77.07
2019-02-22T17:30:45.274Z,77.34
2019-02-22T17:33:20.189Z,77.56
2019-02-22T17:35:55.148Z,77.25
2019-02-22T17:38:30.000Z,77.04
2019-02-22T17:41:04.994Z,77.36
2019-02-22T17:43:39.886Z,77.20
2019-02-22T17:46:14.864Z,77.11
2019-02-22T17:48:49.778Z,76.94
2019-02-22T17:51:26.689Z,77.39
2019-02-22T17:54:01.554Z,77.36
2019-02-22T17:56:36.422Z,77.08
2019-02-22T17:59:11.345Z,76.80
2019-02-22T18:01:46.414Z,76.86
2019-02-22T18:04:21.376Z,76.27
2019-02-22T18:06:57.202Z,76.17
2019-02-22T18:09:32.159Z,76.54
2019-02-22T18:12:07.158Z,76.83
2019-02-22T18:14:42.044Z,77.10
2019-02-22T18:17:16.928Z,77.10
2019-02-22T18:19:51.929Z,76.64
2019-02-22T18:22:27.993Z,76.93
2019-02-22T18:25:02.892Z,76.79
2019-02-22T18:27:37.854Z,77.19
2019-02-22T18:30:13.730Z,76.49
2019-02-22T18:32:53.305Z,76.41
2019-02-22T18:35:34.404Z,76.67
2019-02-22T18:38:09.283Z,76.95
2019-02-22T18:40:45.446Z,76.91
2019-02-22T18:43:20.851Z,76.78
2019-02-22T18:45:55.825Z,77.69
2019-02-22T18:48:30.852Z,77.32
2019-02-22T18:51:05.752Z,77.76
2019-02-22T18:53:40.530Z,77.48
2019-02-22T18:56:15.407Z,76.79
2019-02-22T18:58:50.331Z,77.57
2019-02-22T19:01:25.582Z,76.95
2019-02-22T19:04:00.465Z,77.11
2019-02-22T19:06:37.436Z,77.32
2019-02-22T19:09:12.424Z,77.24
2019-02-22T19:11:47.318Z,76.98
2019-02-22T19:14:22.271Z,77.20
2019-02-22T19:16:57.183Z,77.55
2019-02-22T19:19:32.208Z,77.48
2019-02-22T19:22:07.129Z,77.14
2019-02-22T19:24:42.188Z,76.99
2019-02-22T19:27:20.265Z,77.00
2019-02-22T19:29:55.078Z,77.03
2019-02-22T19:32:30.016Z,77.36
2019-02-22T19:35:05.118Z,77.66
2019-02-22T19:37:40.224Z,77.69
2019-02-22T19:40:21.082Z,77.66
2019-02-22T19:42:56.008Z,77.93
2019-02-22T19:45:30.942Z,77.58
2019-02-22T19:48:05.833Z,77.31
2019-02-22T19:50:41.713Z,77.23
2019-02-22T19:53:16.934Z,77.04
2019-02-22T19:55:52.104Z,77.29
2019-02-22T19:58:27.041Z,77.10
2019-02-22T20:01:02.114Z,77.49
2019-02-22T20:03:37.206Z,77.75
2019-02-22T20:06:12.078Z,77.42
2019-02-22T20:08:47.864Z,77.02
2019-02-22T20:11:23.705Z,77.27
2019-02-22T20:13:58.608Z,77.77
2019-02-22T20:16:34.363Z,78.30
2019-02-22T20:19:09.320Z,78.13
2019-02-22T20:21:45.090Z,77.91
2019-02-22T20:24:20.060Z,77.93
2019-02-22T20:26:54.964Z,77.97
2019-02-22T20:29:29.822Z,77.88
2019-02-22T20:32:04.657Z,78.21
2019-02-22T20:34:39.582Z,78.36
2019-02-22T20:37:15.443Z,78.25
2019-02-22T20:39:50.808Z,78.19
2019-02-22T20:42:26.662Z,78.01
2019-02-22T20:48:04.347Z,77.49
2019-02-22T20:50:30.868Z,77.44
2019-02-22T20:53:05.802Z,77.45
2019-02-22T20:55:42.298Z,77.24
2019-02-22T20:58:17.224Z,77.20
2019-02-22T21:00:52.191Z,76.68
2019-02-22T21:03:27.078Z,76.71
2019-02-22T21:06:02.090Z,76.49
2019-02-22T21:08:37.081Z,76.27
2019-02-22T21:11:57.853Z,76.69
2019-02-22T21:14:33.667Z,76.57
2019-02-22T21:17:08.483Z,76.37
2019-02-22T21:19:43.372Z,76.63
2019-02-22T21:22:24.442Z,76.46
2019-02-22T21:25:00.338Z,76.54
2019-02-22T21:27:37.228Z,76.91
2019-02-22T21:30:16.131Z,77.09
2019-02-22T21:32:50.923Z,76.93
2019-02-22T21:35:27.281Z,77.09
2019-02-22T21:38:03.050Z,77.16
2019-02-22T21:40:40.936Z,77.34
2019-02-22T21:43:16.735Z,77.69
2019-02-22T21:45:51.615Z,77.66
2019-02-22T21:48:34.143Z,77.92
2019-02-22T21:52:04.729Z,77.80
2019-02-22T21:54:52.936Z,77.79
2019-02-22T21:57:27.918Z,78.26
2019-02-22T22:00:02.868Z,78.15
2019-02-22T22:02:58.462Z,78.36
2019-02-22T22:05:42.688Z,78.86
2019-02-22T22:08:30.855Z,78.56
2019-02-22T22:11:06.021Z,78.57
2019-02-22T22:13:44.727Z,78.73
2019-02-22T22:16:20.033Z,79.05
2019-02-22T22:18:55.997Z,79.11
2019-02-22T22:21:30.965Z,78.65
2019-02-22T22:24:15.565Z,78.91
2019-02-22T22:26:54.085Z,79.44
2019-02-22T22:29:33.306Z,79.55
2019-02-22T22:32:09.522Z,79.46
2019-02-22T22:34:44.438Z,79.74
2019-02-22T22:37:25.803Z,79.66
2019-02-22T22:40:01.652Z,79.90
2019-02-22T22:42:36.806Z,79.82
2019-02-22T22:45:12.585Z,79.48
2019-02-22T22:47:47.354Z,79.59
2019-02-22T22:50:22.224Z,79.87
2019-02-22T22:52:57.085Z,79.73
2019-02-22T22:55:31.987Z,80.00
2019-02-22T22:58:06.917Z,80.20
2019-02-22T23:01:10.001Z,80.16
2019-02-22T23:03:45.069Z,79.76
2019-02-22T23:06:20.281Z,79.42
2019-02-22T23:08:55.168Z,79.83
2019-02-22T23:11:30.153Z,80.30
2019-02-22T23:14:06.105Z,80.07
2019-02-22T23:16:41.010Z,80.46
2019-02-22T23:19:15.989Z,80.63
2019-02-22T23:21:50.891Z,80.15
2019-02-22T23:24:26.745Z,80.62
2019-02-22T23:27:01.786Z,80.70
2019-02-22T23:29:36.585Z,80.74
2019-02-22T23:32:11.483Z,80.43
2019-02-22T23:34:46.357Z,80.43
2019-02-22T23:37:21.294Z,80.68
2019-02-22T23:39:56.046Z,79.96
2019-02-22T23:42:30.969Z,80.40
2019-02-22T23:45:05.923Z,80.19
2019-02-22T23:52:04.215Z,80.20
2019-02-22T23:58:36.362Z,80.74
